createdAt,value
2022-12-14T00:00:42.020Z,93.11
2022-12-14T00:01:41.934Z,93.28
2022-12-14T00:02:42.089Z,93.07
2022-12-14T00:03:41.967Z,92.96
2022-12-14T00:04:41.922Z,92.96
2022-12-14T00:05:41.907Z,92.85
2022-12-14T00:06:41.890Z,92.96
2022-12-14T00:07:43.416Z,92.85
2022-12-14T00:08:42.212Z,92.11
2022-12-14T00:09:42.881Z,92.64
2022-12-14T00:10:42.411Z,92.54
2022-12-14T00:11:41.867Z,92.64
2022-12-14T00:12:41.862Z,93.07
2022-12-14T00:13:41.869Z,92.96
2022-12-14T00:14:41.843Z,92.64
2022-12-14T00:15:41.874Z,92.75
2022-12-14T00:16:41.845Z,92.75
2022-12-14T00:17:42.342Z,92.81
2022-12-14T00:18:41.887Z,92.18
2022-12-14T00:19:41.803Z,91.96
2022-12-14T00:20:41.830Z,92.49
2022-12-14T00:21:41.806Z,92.18
2022-12-14T00:22:41.842Z,91.75
2022-12-14T00:23:42.295Z,92.07
2022-12-14T00:24:41.769Z,92.29
2022-12-14T00:25:42.423Z,92.29
2022-12-14T00:27:53.320Z,92.85
2022-12-14T00:28:53.360Z,93.02
2022-12-14T00:29:53.287Z,93.17
2022-12-14T00:30:58.237Z,93.17
2022-12-14T00:31:55.552Z,93.38
2022-12-14T00:32:54.364Z,93.70
2022-12-14T00:33:54.354Z,93.38
2022-12-14T00:34:54.345Z,92.96
2022-12-14T00:35:54.337Z,92.85
2022-12-14T00:36:54.341Z,92.60
2022-12-14T00:37:54.321Z,92.11
2022-12-14T00:38:54.313Z,91.69
2022-12-14T00:39:54.318Z,91.44
2022-12-14T00:40:54.297Z,91.12
2022-12-14T00:41:54.304Z,91.05
2022-12-14T00:42:54.287Z,91.05
2022-12-14T00:43:54.283Z,91.37
2022-12-14T00:44:54.291Z,90.95
2022-12-14T00:45:54.340Z,91.27
2022-12-14T00:46:54.280Z,91.05
2022-12-14T00:47:54.242Z,91.05
2022-12-14T00:48:54.246Z,91.27
2022-12-14T00:49:54.246Z,91.16
2022-12-14T00:50:54.227Z,91.27
2022-12-14T00:51:54.224Z,90.42
2022-12-14T00:52:54.205Z,90.67
2022-12-14T00:53:54.204Z,91.16
2022-12-14T00:54:54.204Z,90.99
2022-12-14T00:55:54.186Z,91.09
2022-12-14T00:56:54.191Z,91.30
2022-12-14T00:57:54.165Z,91.27
2022-12-14T00:58:54.160Z,91.63
2022-12-14T00:59:54.155Z,91.73
2022-12-14T01:00:54.142Z,91.69
2022-12-14T01:01:54.243Z,91.37
2022-12-14T01:02:54.129Z,91.37
2022-12-14T01:03:54.129Z,90.99
2022-12-14T01:04:54.117Z,91.16
2022-12-14T01:05:54.121Z,91.27
2022-12-14T01:06:54.103Z,91.05
2022-12-14T01:07:54.085Z,90.88
2022-12-14T01:08:54.098Z,91.27
2022-12-14T01:09:54.069Z,90.95
2022-12-14T01:10:54.067Z,91.37
2022-12-14T01:11:54.088Z,91.27
2022-12-14T01:12:54.054Z,91.16
2022-12-14T01:13:54.047Z,91.58
2022-12-14T01:14:54.969Z,91.47
2022-12-14T01:15:54.080Z,91.05
2022-12-14T01:16:54.020Z,91.16
2022-12-14T01:17:54.000Z,91.33
2022-12-14T01:18:54.009Z,90.73
2022-12-14T01:19:53.992Z,91.16
2022-12-14T01:20:53.986Z,91.27
2022-12-14T01:21:53.982Z,91.47
2022-12-14T01:22:53.980Z,92.11
2022-12-14T01:23:53.976Z,92.54
2022-12-14T01:24:53.957Z,92.54
2022-12-14T01:25:53.952Z,92.29
2022-12-14T01:26:53.936Z,92.92
2022-12-14T01:27:53.922Z,92.81
2022-12-14T01:28:53.919Z,92.18
2022-12-14T01:29:53.909Z,92.81
2022-12-14T01:30:53.931Z,92.60
2022-12-14T01:31:53.905Z,92.49
2022-12-14T01:32:53.900Z,92.39
2022-12-14T01:33:53.898Z,92.71
2022-12-14T01:34:53.870Z,92.81
2022-12-14T01:35:53.860Z,92.60
2022-12-14T01:36:54.538Z,92.81
2022-12-14T01:37:53.861Z,92.71
2022-12-14T01:38:53.859Z,92.71
2022-12-14T01:39:53.836Z,92.18
2022-12-14T01:40:53.823Z,92.60
2022-12-14T01:41:53.843Z,92.92
2022-12-14T01:42:53.817Z,92.60
2022-12-14T01:43:53.816Z,92.81
2022-12-14T01:44:53.810Z,92.81
2022-12-14T01:45:53.790Z,92.32
2022-12-14T01:46:53.846Z,91.64
2022-12-14T01:47:53.784Z,91.86
2022-12-14T01:48:53.759Z,92.07
2022-12-14T01:49:53.750Z,92.22
2022-12-14T01:50:53.740Z,92.22
2022-12-14T01:51:53.753Z,92.07
2022-12-14T01:52:53.750Z,91.47
2022-12-14T01:53:53.719Z,91.47
2022-12-14T01:54:53.713Z,91.37
2022-12-14T01:55:53.707Z,92.11
2022-12-14T01:56:53.702Z,91.90
2022-12-14T01:57:53.697Z,92.75
2022-12-14T01:58:53.692Z,92.43
2022-12-14T01:59:53.677Z,92.64
2022-12-14T02:00:53.672Z,92.64
2022-12-14T02:01:53.798Z,92.85
2022-12-14T02:02:53.727Z,92.85
2022-12-14T02:03:53.648Z,92.75
2022-12-14T02:04:53.688Z,92.00
2022-12-14T02:05:53.646Z,91.16
2022-12-14T02:06:59.395Z,91.27
2022-12-14T02:07:55.612Z,91.16
2022-12-14T02:08:53.615Z,91.16
2022-12-14T02:09:53.594Z,90.88
2022-12-14T02:10:53.600Z,91.05
2022-12-14T02:11:53.591Z,91.05
2022-12-14T02:12:53.577Z,91.09
2022-12-14T02:13:53.571Z,91.16
2022-12-14T02:14:53.562Z,91.20
2022-12-14T02:15:53.583Z,91.47
2022-12-14T02:16:54.557Z,91.30
2022-12-14T02:17:53.533Z,91.47
2022-12-14T02:18:53.529Z,91.52
2022-12-14T02:19:53.522Z,91.69
2022-12-14T02:20:53.519Z,91.69
2022-12-14T02:21:53.564Z,91.58
2022-12-14T02:22:53.515Z,91.58
2022-12-14T02:23:53.487Z,91.69
2022-12-14T02:24:53.484Z,91.69
2022-12-14T02:25:53.480Z,91.58
2022-12-14T02:26:53.466Z,91.47
2022-12-14T02:27:53.472Z,91.47
2022-12-14T02:28:53.467Z,91.58
2022-12-14T02:29:53.453Z,91.75
2022-12-14T02:30:53.440Z,91.79
2022-12-14T02:31:53.442Z,91.69
2022-12-14T02:32:53.438Z,91.44
2022-12-14T02:33:53.429Z,91.44
2022-12-14T02:34:53.417Z,91.96
2022-12-14T02:35:54.065Z,91.54
2022-12-14T02:36:53.403Z,91.54
2022-12-14T02:37:53.384Z,91.64
2022-12-14T02:38:53.381Z,91.64
2022-12-14T02:39:53.380Z,91.64
2022-12-14T02:40:53.366Z,91.54
2022-12-14T02:41:53.351Z,91.29
2022-12-14T02:42:53.346Z,91.75
2022-12-14T02:43:53.347Z,91.54
2022-12-14T02:44:53.326Z,91.18
2022-12-14T02:45:53.323Z,91.29
2022-12-14T02:46:53.368Z,90.97
2022-12-14T02:47:53.309Z,91.08
2022-12-14T02:48:53.314Z,90.48
2022-12-14T02:49:53.296Z,89.91
2022-12-14T02:50:53.302Z,89.17
2022-12-14T02:51:53.291Z,89.17
2022-12-14T02:52:53.271Z,88.85
2022-12-14T02:53:53.274Z,89.06
2022-12-14T02:54:53.256Z,89.00
2022-12-14T02:55:53.251Z,89.42
2022-12-14T02:56:53.242Z,89.42
2022-12-14T02:57:53.245Z,89.64
2022-12-14T02:58:53.234Z,89.74
2022-12-14T02:59:53.225Z,89.49
2022-12-14T03:00:53.228Z,89.42
2022-12-14T03:01:53.339Z,89.81
2022-12-14T03:02:53.296Z,90.16
2022-12-14T03:03:53.196Z,90.01
2022-12-14T03:04:53.176Z,90.01
2022-12-14T03:05:53.171Z,90.12
2022-12-14T03:06:53.163Z,89.95
2022-12-14T03:07:53.161Z,89.91
2022-12-14T03:08:53.157Z,90.16
2022-12-14T03:09:53.177Z,89.91
2022-12-14T03:10:53.132Z,89.42
2022-12-14T03:11:54.082Z,89.64
2022-12-14T03:12:53.123Z,89.84
2022-12-14T03:13:53.105Z,89.74
2022-12-14T03:14:54.131Z,89.74
2022-12-14T03:15:53.186Z,90.06
2022-12-14T03:16:53.095Z,89.91
2022-12-14T03:17:53.088Z,90.06
2022-12-14T03:18:53.086Z,90.16
2022-12-14T03:19:53.066Z,90.16
2022-12-14T03:20:53.057Z,89.74
2022-12-14T03:21:53.052Z,89.59
2022-12-14T03:22:53.053Z,90.27
2022-12-14T03:23:53.045Z,90.44
2022-12-14T03:24:53.034Z,90.97
2022-12-14T03:25:53.027Z,90.97
2022-12-14T03:26:53.016Z,91.12
2022-12-14T03:27:53.005Z,90.76
2022-12-14T03:28:53.005Z,90.97
2022-12-14T03:29:53.064Z,91.18
2022-12-14T03:31:01.152Z,91.08
2022-12-14T03:31:55.003Z,91.29
2022-12-14T03:32:52.972Z,91.18
2022-12-14T03:33:52.963Z,91.08
2022-12-14T03:34:52.950Z,91.08
2022-12-14T03:35:52.948Z,91.29
2022-12-14T03:36:52.944Z,91.54
2022-12-14T03:37:53.397Z,91.82
2022-12-14T03:38:53.926Z,91.75
2022-12-14T03:39:52.922Z,91.44
2022-12-14T03:40:52.914Z,91.50
2022-12-14T03:41:52.910Z,91.64
2022-12-14T03:42:52.899Z,92.07
2022-12-14T03:43:52.887Z,91.93
2022-12-14T03:44:52.868Z,92.18
2022-12-14T03:45:52.912Z,92.07
2022-12-14T03:46:52.857Z,91.93
2022-12-14T03:47:52.846Z,91.71
2022-12-14T03:48:52.844Z,91.61
2022-12-14T03:49:52.834Z,91.54
2022-12-14T03:50:52.828Z,91.39
2022-12-14T03:51:52.813Z,91.82
2022-12-14T03:52:52.809Z,91.50
2022-12-14T03:53:52.795Z,91.54
2022-12-14T03:54:52.788Z,91.39
2022-12-14T03:55:52.873Z,91.64
2022-12-14T03:56:53.455Z,91.75
2022-12-14T03:57:53.779Z,91.75
2022-12-14T03:58:57.132Z,91.54
2022-12-14T03:59:53.749Z,91.54
2022-12-14T04:00:52.791Z,92.07
2022-12-14T04:01:52.910Z,92.07
2022-12-14T04:02:52.753Z,91.64
2022-12-14T04:03:53.714Z,91.86
2022-12-14T04:04:52.711Z,92.07
2022-12-14T04:05:52.701Z,91.33
2022-12-14T04:06:52.711Z,91.50
2022-12-14T04:07:52.691Z,91.96
2022-12-14T04:08:52.686Z,91.96
2022-12-14T04:09:52.673Z,91.75
2022-12-14T04:10:52.662Z,92.18
2022-12-14T04:11:52.663Z,92.07
2022-12-14T04:12:52.651Z,91.50
2022-12-14T04:13:52.638Z,91.61
2022-12-14T04:14:52.628Z,91.50
2022-12-14T04:15:52.625Z,91.50
2022-12-14T04:16:52.679Z,91.61
2022-12-14T04:17:52.608Z,91.08
2022-12-14T04:18:57.527Z,91.50
2022-12-14T04:19:54.595Z,90.86
2022-12-14T04:20:52.587Z,90.97
2022-12-14T04:21:52.583Z,91.08
2022-12-14T04:22:52.566Z,91.01
2022-12-14T04:23:52.571Z,90.86
2022-12-14T04:24:52.558Z,90.97
2022-12-14T04:25:52.542Z,90.97
2022-12-14T04:26:52.546Z,91.08
2022-12-14T04:27:52.540Z,91.18
2022-12-14T04:28:52.523Z,90.86
2022-12-14T04:29:52.516Z,90.97
2022-12-14T04:30:52.509Z,91.08
2022-12-14T04:31:52.694Z,91.18
2022-12-14T04:32:52.531Z,91.29
2022-12-14T04:33:52.488Z,91.08
2022-12-14T04:34:52.471Z,91.29
2022-12-14T04:35:52.509Z,91.08
2022-12-14T04:36:52.457Z,91.08
2022-12-14T04:37:52.487Z,90.65
2022-12-14T04:38:53.960Z,90.86
2022-12-14T04:39:52.435Z,90.97
2022-12-14T04:40:52.433Z,90.76
2022-12-14T04:41:52.433Z,90.86
2022-12-14T04:42:52.420Z,90.86
2022-12-14T04:43:52.416Z,91.12
2022-12-14T04:44:52.396Z,90.97
2022-12-14T04:45:53.434Z,91.18
2022-12-14T04:46:52.377Z,91.12
2022-12-14T04:47:52.373Z,90.97
2022-12-14T04:48:52.383Z,91.08
2022-12-14T04:49:52.365Z,90.97
2022-12-14T04:50:52.351Z,90.97
2022-12-14T04:51:52.346Z,91.08
2022-12-14T04:52:52.365Z,91.01
2022-12-14T04:53:52.343Z,91.12
2022-12-14T04:54:52.326Z,91.08
2022-12-14T04:55:52.314Z,91.08
2022-12-14T04:56:52.308Z,90.86
2022-12-14T04:57:52.305Z,91.18
2022-12-14T04:58:52.300Z,91.01
2022-12-14T04:59:52.288Z,91.18
2022-12-14T05:00:52.332Z,91.18
2022-12-14T05:01:52.367Z,91.12
2022-12-14T05:02:52.612Z,91.18
2022-12-14T05:03:52.253Z,91.08
2022-12-14T05:04:52.246Z,90.44
2022-12-14T05:05:52.243Z,90.76
2022-12-14T05:06:52.236Z,90.12
2022-12-14T05:07:52.223Z,89.91
2022-12-14T05:08:52.224Z,90.01
2022-12-14T05:09:52.215Z,90.01
2022-12-14T05:10:52.197Z,90.33
2022-12-14T05:11:54.008Z,89.70
2022-12-14T05:12:53.185Z,89.98
2022-12-14T05:13:52.169Z,89.70
2022-12-14T05:14:52.177Z,89.76
2022-12-14T05:15:52.157Z,89.49
2022-12-14T05:16:52.197Z,89.55
2022-12-14T05:17:52.139Z,89.23
2022-12-14T05:18:52.139Z,89.03
2022-12-14T05:19:52.171Z,89.03
2022-12-14T05:20:53.117Z,89.23
2022-12-14T05:21:52.121Z,89.34
2022-12-14T05:22:52.104Z,89.34
2022-12-14T05:23:52.108Z,89.45
2022-12-14T05:24:52.086Z,89.45
2022-12-14T05:25:52.089Z,89.13
2022-12-14T05:26:52.074Z,89.45
2022-12-14T05:27:52.067Z,89.45
2022-12-14T05:28:52.067Z,89.66
2022-12-14T05:29:52.051Z,89.55
2022-12-14T05:30:52.094Z,89.55
2022-12-14T05:31:52.043Z,89.45
2022-12-14T05:32:52.139Z,89.23
2022-12-14T05:33:52.018Z,89.23
2022-12-14T05:34:52.025Z,89.87
2022-12-14T05:35:52.014Z,89.23
2022-12-14T05:36:51.992Z,89.55
2022-12-14T05:37:51.994Z,89.91
2022-12-14T05:38:51.990Z,89.98
2022-12-14T05:39:51.981Z,89.66
2022-12-14T05:40:51.962Z,89.98
2022-12-14T05:41:51.988Z,90.23
2022-12-14T05:42:55.692Z,90.08
2022-12-14T05:43:52.942Z,89.91
2022-12-14T05:44:51.942Z,89.98
2022-12-14T05:45:51.945Z,89.76
2022-12-14T05:46:51.917Z,89.98
2022-12-14T05:47:56.542Z,89.98
2022-12-14T05:48:52.543Z,89.98
2022-12-14T05:49:51.911Z,90.08
2022-12-14T05:50:51.883Z,89.98
2022-12-14T05:51:52.445Z,89.87
2022-12-14T05:52:52.482Z,89.87
2022-12-14T05:53:52.578Z,89.87
2022-12-14T05:54:55.538Z,89.55
2022-12-14T05:55:51.872Z,89.98
2022-12-14T05:56:51.846Z,89.55
2022-12-14T05:57:51.828Z,89.66
2022-12-14T05:58:51.839Z,89.59
2022-12-14T05:59:51.814Z,89.87
2022-12-14T06:00:51.816Z,89.87
2022-12-14T06:01:51.889Z,89.87
2022-12-14T06:02:51.831Z,89.98
2022-12-14T06:03:51.791Z,89.87
2022-12-14T06:04:51.854Z,89.34
2022-12-14T06:05:52.553Z,89.66
2022-12-14T06:06:51.760Z,89.13
2022-12-14T06:07:51.753Z,89.45
2022-12-14T06:08:51.755Z,89.23
2022-12-14T06:09:52.218Z,89.13
2022-12-14T06:10:51.731Z,89.45
2022-12-14T06:11:51.745Z,89.13
2022-12-14T06:12:51.748Z,89.45
2022-12-14T06:13:51.728Z,89.66
2022-12-14T06:14:51.758Z,88.92
2022-12-14T06:15:51.777Z,89.23
2022-12-14T06:16:51.696Z,89.23
2022-12-14T06:17:51.891Z,89.23
2022-12-14T06:18:51.704Z,89.13
2022-12-14T06:19:51.671Z,89.66
2022-12-14T06:20:51.722Z,89.66
2022-12-14T06:21:51.659Z,89.34
2022-12-14T06:22:51.643Z,89.45
2022-12-14T06:23:51.640Z,89.03
2022-12-14T06:24:51.629Z,89.03
2022-12-14T06:25:51.614Z,89.03
2022-12-14T06:26:51.612Z,88.98
2022-12-14T06:27:51.601Z,89.23
2022-12-14T06:28:51.588Z,89.23
2022-12-14T06:29:51.594Z,88.81
2022-12-14T06:30:51.610Z,88.71
2022-12-14T06:31:51.570Z,88.49
2022-12-14T06:32:51.559Z,88.60
2022-12-14T06:33:51.554Z,88.49
2022-12-14T06:34:51.541Z,88.67
2022-12-14T06:35:51.573Z,88.60
2022-12-14T06:36:51.539Z,88.81
2022-12-14T06:37:51.531Z,88.71
2022-12-14T06:38:51.532Z,88.67
2022-12-14T06:39:54.477Z,88.45
2022-12-14T06:40:53.487Z,88.60
2022-12-14T06:41:51.497Z,88.60
2022-12-14T06:42:51.482Z,88.60
2022-12-14T06:43:51.473Z,88.81
2022-12-14T06:44:51.469Z,88.49
2022-12-14T06:45:51.480Z,88.45
2022-12-14T06:46:51.525Z,88.60
2022-12-14T06:47:51.455Z,87.71
2022-12-14T06:48:51.435Z,87.61
2022-12-14T06:49:51.433Z,87.43
2022-12-14T06:50:51.425Z,87.61
2022-12-14T06:51:51.427Z,87.61
2022-12-14T06:52:51.467Z,87.61
2022-12-14T06:53:51.401Z,87.54
2022-12-14T06:54:51.397Z,87.40
2022-12-14T06:55:51.380Z,87.71
2022-12-14T06:56:52.058Z,86.91
2022-12-14T06:57:51.366Z,87.50
2022-12-14T06:58:51.358Z,86.55
2022-12-14T06:59:51.359Z,87.50
2022-12-14T07:00:52.073Z,87.18
2022-12-14T07:01:51.413Z,87.29
2022-12-14T07:02:51.520Z,87.50
2022-12-14T07:03:51.371Z,87.29
2022-12-14T07:04:51.327Z,87.40
2022-12-14T07:05:51.326Z,87.40
2022-12-14T07:06:51.312Z,87.61
2022-12-14T07:07:51.734Z,86.76
2022-12-14T07:08:51.576Z,86.76
2022-12-14T07:09:51.337Z,87.57
2022-12-14T07:10:52.063Z,87.68
2022-12-14T07:11:51.262Z,87.40
2022-12-14T07:12:51.270Z,87.57
2022-12-14T07:13:51.253Z,87.40
2022-12-14T07:14:51.236Z,87.29
2022-12-14T07:15:51.295Z,87.36
2022-12-14T07:16:51.217Z,87.78
2022-12-14T07:17:51.215Z,87.36
2022-12-14T07:18:51.218Z,86.93
2022-12-14T07:19:51.203Z,87.15
2022-12-14T07:20:51.334Z,87.04
2022-12-14T07:21:51.172Z,87.04
2022-12-14T07:22:51.167Z,87.25
2022-12-14T07:23:51.163Z,87.57
2022-12-14T07:24:52.062Z,87.36
2022-12-14T07:25:51.143Z,87.46
2022-12-14T07:26:51.145Z,87.36
2022-12-14T07:27:51.128Z,87.25
2022-12-14T07:28:51.120Z,87.53
2022-12-14T07:29:51.114Z,87.04
2022-12-14T07:30:51.138Z,86.83
2022-12-14T07:31:51.103Z,87.57
2022-12-14T07:32:51.094Z,87.25
2022-12-14T07:33:51.081Z,87.57
2022-12-14T07:34:51.078Z,87.25
2022-12-14T07:35:51.082Z,87.15
2022-12-14T07:36:51.060Z,87.15
2022-12-14T07:37:52.062Z,87.04
2022-12-14T07:38:51.044Z,86.61
2022-12-14T07:39:51.064Z,86.93
2022-12-14T07:40:51.310Z,86.93
2022-12-14T07:41:51.045Z,86.93
2022-12-14T07:42:51.025Z,87.15
2022-12-14T07:43:51.020Z,86.72
2022-12-14T07:44:51.991Z,86.79
2022-12-14T07:45:51.002Z,86.36
2022-12-14T07:46:52.044Z,86.26
2022-12-14T07:47:50.977Z,85.94
2022-12-14T07:48:50.971Z,85.84
2022-12-14T07:49:51.017Z,85.52
2022-12-14T07:50:51.000Z,85.84
2022-12-14T07:51:50.989Z,85.63
2022-12-14T07:52:50.934Z,85.88
2022-12-14T07:53:50.931Z,85.52
2022-12-14T07:54:50.921Z,85.21
2022-12-14T07:55:50.954Z,85.31
2022-12-14T07:56:50.924Z,84.99
2022-12-14T07:57:50.903Z,84.99
2022-12-14T07:58:50.902Z,85.41
2022-12-14T07:59:55.777Z,85.52
2022-12-14T08:00:52.874Z,85.52
2022-12-14T08:01:51.598Z,84.78
2022-12-14T08:02:50.879Z,84.99
2022-12-14T08:03:50.950Z,84.89
2022-12-14T08:04:50.895Z,84.67
2022-12-14T08:05:50.840Z,84.99
2022-12-14T08:06:50.836Z,84.99
2022-12-14T08:07:50.829Z,84.89
2022-12-14T08:08:50.821Z,85.10
2022-12-14T08:09:50.801Z,85.21
2022-12-14T08:10:50.810Z,84.99
2022-12-14T08:11:50.802Z,85.21
2022-12-14T08:12:50.779Z,85.27
2022-12-14T08:13:51.563Z,84.64
2022-12-14T08:14:50.772Z,84.84
2022-12-14T08:15:50.835Z,85.06
2022-12-14T08:16:50.759Z,84.42
2022-12-14T08:17:50.759Z,84.22
2022-12-14T08:18:50.733Z,84.42
2022-12-14T08:19:50.724Z,84.00
2022-12-14T08:20:53.292Z,84.04
2022-12-14T08:21:51.725Z,84.22
2022-12-14T08:22:50.715Z,84.53
2022-12-14T08:23:50.706Z,84.64
2022-12-14T08:24:50.685Z,84.64
2022-12-14T08:25:51.567Z,84.11
2022-12-14T08:26:50.690Z,84.07
2022-12-14T08:27:50.670Z,83.97
2022-12-14T08:28:50.663Z,83.69
2022-12-14T08:29:50.645Z,83.97
2022-12-14T08:30:50.640Z,84.00
2022-12-14T08:31:50.697Z,83.69
2022-12-14T08:32:50.629Z,83.79
2022-12-14T08:33:50.627Z,84.22
2022-12-14T08:34:50.610Z,84.00
2022-12-14T08:35:50.612Z,83.58
2022-12-14T08:36:50.593Z,83.69
2022-12-14T08:37:50.591Z,83.79
2022-12-14T08:38:50.689Z,83.44
2022-12-14T08:39:50.578Z,84.17
2022-12-14T08:40:50.574Z,83.47
2022-12-14T08:41:51.487Z,84.00
2022-12-14T08:42:50.578Z,84.11
2022-12-14T08:43:50.547Z,83.58
2022-12-14T08:44:50.548Z,83.69
2022-12-14T08:45:50.524Z,83.90
2022-12-14T08:46:50.582Z,83.47
2022-12-14T08:47:50.514Z,83.58
2022-12-14T08:48:50.593Z,83.44
2022-12-14T08:49:50.493Z,83.44
2022-12-14T08:50:50.483Z,83.54
2022-12-14T08:51:50.505Z,82.91
2022-12-14T08:52:50.481Z,82.98
2022-12-14T08:53:50.479Z,82.91
2022-12-14T08:54:51.499Z,82.91
2022-12-14T08:55:50.452Z,82.03
2022-12-14T08:56:50.477Z,82.80
2022-12-14T08:57:50.430Z,83.01
2022-12-14T08:58:50.434Z,82.56
2022-12-14T09:00:01.453Z,82.66
2022-12-14T09:00:52.451Z,82.98
2022-12-14T09:01:50.629Z,82.76
2022-12-14T09:02:50.588Z,82.45
2022-12-14T09:03:50.394Z,82.34
2022-12-14T09:04:50.383Z,82.87
2022-12-14T09:05:50.382Z,82.34
2022-12-14T09:06:50.368Z,82.45
2022-12-14T09:07:50.356Z,82.66
2022-12-14T09:08:50.345Z,82.34
2022-12-14T09:09:50.343Z,82.41
2022-12-14T09:10:50.989Z,82.09
2022-12-14T09:11:50.988Z,82.41
2022-12-14T09:12:50.318Z,82.41
2022-12-14T09:13:50.312Z,82.31
2022-12-14T09:14:50.312Z,82.31
2022-12-14T09:15:50.319Z,82.31
2022-12-14T09:16:50.355Z,82.09
2022-12-14T09:17:50.285Z,82.31
2022-12-14T09:18:50.276Z,82.20
2022-12-14T09:19:50.269Z,82.52
2022-12-14T09:20:50.264Z,82.31
2022-12-14T09:21:50.284Z,82.41
2022-12-14T09:22:50.257Z,82.62
2022-12-14T09:23:55.595Z,82.41
2022-12-14T09:24:52.229Z,82.27
2022-12-14T09:25:50.225Z,82.17
2022-12-14T09:26:50.210Z,82.48
2022-12-14T09:27:51.090Z,82.27
2022-12-14T09:28:50.202Z,82.59
2022-12-14T09:29:50.194Z,82.27
2022-12-14T09:30:50.195Z,82.27
2022-12-14T09:31:50.219Z,82.37
2022-12-14T09:32:51.034Z,82.73
2022-12-14T09:33:51.092Z,82.69
2022-12-14T09:34:50.158Z,82.37
2022-12-14T09:35:50.158Z,82.69
2022-12-14T09:36:50.230Z,82.69
2022-12-14T09:37:50.123Z,82.48
2022-12-14T09:38:51.899Z,82.69
2022-12-14T09:39:51.115Z,83.07
2022-12-14T09:40:50.975Z,82.34
2022-12-14T09:41:50.533Z,82.55
2022-12-14T09:42:50.680Z,82.23
2022-12-14T09:43:50.125Z,82.55
2022-12-14T09:44:50.184Z,82.76
2022-12-14T09:45:50.130Z,82.44
2022-12-14T09:46:50.086Z,82.23
2022-12-14T09:47:50.069Z,82.55
2022-12-14T09:48:50.070Z,82.40
2022-12-14T09:49:50.060Z,81.77
2022-12-14T09:50:50.222Z,81.35
2022-12-14T09:51:50.038Z,81.46
2022-12-14T09:52:50.024Z,81.10
2022-12-14T09:53:50.003Z,81.35
2022-12-14T09:54:50.604Z,80.90
2022-12-14T09:55:50.000Z,80.47
2022-12-14T09:56:49.994Z,81.07
2022-12-14T09:57:49.976Z,80.58
2022-12-14T09:58:50.005Z,80.58
2022-12-14T09:59:51.547Z,80.44
2022-12-14T10:00:53.562Z,80.02
2022-12-14T10:02:13.837Z,79.80
2022-12-14T10:02:52.123Z,79.66
2022-12-14T10:03:50.212Z,79.98
2022-12-14T10:04:49.998Z,79.14
2022-12-14T10:05:49.925Z,79.98
2022-12-14T10:06:49.908Z,79.98
2022-12-14T10:07:49.896Z,80.05
2022-12-14T10:08:54.592Z,79.31
2022-12-14T10:09:51.882Z,79.00
2022-12-14T10:10:49.898Z,78.92
2022-12-14T10:11:49.865Z,80.12
2022-12-14T10:12:49.870Z,79.38
2022-12-14T10:13:49.863Z,80.44
2022-12-14T10:14:49.856Z,79.70
2022-12-14T10:15:49.852Z,80.02
2022-12-14T10:16:52.227Z,80.02
2022-12-14T10:17:50.815Z,80.65
2022-12-14T10:18:59.521Z,80.68
2022-12-14T10:19:51.810Z,79.80
2022-12-14T10:20:49.886Z,80.44
2022-12-14T10:21:49.815Z,80.22
2022-12-14T10:22:49.784Z,80.22
2022-12-14T10:23:49.781Z,80.12
2022-12-14T10:24:49.767Z,80.86
2022-12-14T10:25:49.749Z,80.29
2022-12-14T10:26:50.503Z,80.61
2022-12-14T10:28:09.865Z,79.17
2022-12-14T10:28:56.359Z,79.66
2022-12-14T10:29:50.722Z,79.24
2022-12-14T10:30:49.719Z,79.41
2022-12-14T10:31:49.744Z,79.35
2022-12-14T10:32:49.699Z,79.35
2022-12-14T10:33:49.693Z,79.24
2022-12-14T10:34:49.675Z,79.83
2022-12-14T10:35:50.688Z,80.05
2022-12-14T10:36:49.693Z,79.31
2022-12-14T10:37:49.651Z,79.38
2022-12-14T10:38:49.651Z,78.61
2022-12-14T10:39:49.808Z,78.50
2022-12-14T10:40:49.764Z,77.42
2022-12-14T10:41:50.516Z,77.62
2022-12-14T10:42:49.822Z,77.52
2022-12-14T10:43:49.749Z,77.28
2022-12-14T10:44:56.078Z,75.67
2022-12-14T10:45:50.663Z,76.19
2022-12-14T10:46:49.665Z,76.19
2022-12-14T10:47:50.574Z,76.02
2022-12-14T10:48:49.603Z,76.86
2022-12-14T10:49:49.580Z,75.88
2022-12-14T10:50:49.933Z,77.45
2022-12-14T10:51:49.560Z,76.51
2022-12-14T10:52:49.545Z,76.15
2022-12-14T10:53:49.535Z,77.35
2022-12-14T10:54:49.531Z,77.35
2022-12-14T10:55:49.522Z,78.19
2022-12-14T10:56:50.056Z,79.24
2022-12-14T10:57:49.532Z,79.66
2022-12-14T10:58:49.518Z,79.97
2022-12-14T11:00:07.273Z,79.55
2022-12-14T11:00:51.523Z,80.40
2022-12-14T11:01:49.634Z,80.18
2022-12-14T11:02:49.965Z,81.09
2022-12-14T11:03:49.456Z,80.64
2022-12-14T11:04:49.489Z,80.32
2022-12-14T11:05:49.449Z,79.38
2022-12-14T11:06:49.456Z,79.48
2022-12-14T11:07:49.435Z,80.22
2022-12-14T11:08:49.415Z,80.08
2022-12-14T11:09:49.415Z,80.29
2022-12-14T11:10:49.405Z,79.13
2022-12-14T11:11:49.447Z,79.80
2022-12-14T11:12:49.390Z,79.58
2022-12-14T11:13:49.432Z,80.64
2022-12-14T11:14:49.380Z,80.99
2022-12-14T11:15:49.389Z,80.53
2022-12-14T11:16:49.523Z,81.16
2022-12-14T11:17:49.468Z,81.86
2022-12-14T11:18:49.337Z,81.02
2022-12-14T11:19:49.336Z,80.71
2022-12-14T11:20:49.329Z,80.46
2022-12-14T11:21:50.183Z,80.98
2022-12-14T11:22:49.319Z,80.21
2022-12-14T11:23:49.397Z,80.42
2022-12-14T11:24:49.315Z,80.74
2022-12-14T11:25:49.287Z,81.23
2022-12-14T11:26:50.084Z,81.33
2022-12-14T11:27:50.195Z,80.35
2022-12-14T11:28:50.333Z,79.41
2022-12-14T11:29:49.263Z,78.71
2022-12-14T11:30:49.288Z,79.09
2022-12-14T11:31:49.250Z,79.02
2022-12-14T11:32:49.237Z,78.71
2022-12-14T11:33:49.966Z,79.02
2022-12-14T11:34:49.220Z,78.81
2022-12-14T11:35:49.220Z,78.85
2022-12-14T11:36:49.223Z,79.02
2022-12-14T11:37:49.203Z,78.60
2022-12-14T11:38:49.197Z,78.53
2022-12-14T11:39:49.188Z,78.85
2022-12-14T11:40:49.178Z,79.10
2022-12-14T11:41:49.176Z,79.62
2022-12-14T11:42:49.165Z,79.20
2022-12-14T11:43:49.161Z,79.41
2022-12-14T11:44:49.162Z,78.92
2022-12-14T11:45:49.648Z,79.13
2022-12-14T11:46:49.169Z,79.03
2022-12-14T11:47:49.134Z,79.24
2022-12-14T11:48:49.129Z,79.38
2022-12-14T11:49:49.106Z,79.44
2022-12-14T11:50:49.121Z,80.35
2022-12-14T11:51:49.174Z,79.34
2022-12-14T11:52:49.096Z,80.04
2022-12-14T11:53:49.080Z,79.44
2022-12-14T11:54:50.007Z,79.72
2022-12-14T11:55:49.062Z,79.30
2022-12-14T11:56:49.063Z,78.78
2022-12-14T11:57:49.073Z,79.10
2022-12-14T11:58:49.046Z,79.41
2022-12-14T11:59:49.033Z,78.57
2022-12-14T12:00:49.032Z,79.62
2022-12-14T12:01:50.135Z,79.83
2022-12-14T12:02:49.132Z,79.10
2022-12-14T12:03:49.056Z,78.57
2022-12-14T12:04:48.985Z,78.89
2022-12-14T12:05:49.007Z,78.89
2022-12-14T12:06:49.507Z,79.34
2022-12-14T12:07:50.617Z,79.20
2022-12-14T12:08:48.959Z,79.13
2022-12-14T12:09:48.970Z,78.81
2022-12-14T12:10:50.239Z,78.81
2022-12-14T12:11:48.950Z,79.66
2022-12-14T12:12:54.079Z,79.86
2022-12-14T12:13:51.507Z,79.55
2022-12-14T12:14:50.562Z,79.34
2022-12-14T12:15:51.678Z,78.92
2022-12-14T12:16:50.529Z,78.43
2022-12-14T12:17:49.519Z,78.85
2022-12-14T12:18:51.546Z,79.06
2022-12-14T12:20:31.594Z,78.89
2022-12-14T12:20:50.546Z,79.62
2022-12-14T12:22:55.778Z,79.80
2022-12-14T12:23:55.745Z,80.32
2022-12-14T12:25:24.266Z,80.46
2022-12-14T12:25:58.527Z,80.32
2022-12-14T12:26:55.690Z,80.53
2022-12-14T12:27:55.684Z,80.32
2022-12-14T12:28:56.772Z,80.64
2022-12-14T12:29:56.764Z,79.90
2022-12-14T12:30:56.884Z,79.83
2022-12-14T12:31:56.753Z,80.64
2022-12-14T12:32:56.769Z,80.00
2022-12-14T12:33:56.755Z,80.78
2022-12-14T12:34:56.723Z,80.68
2022-12-14T12:35:56.724Z,81.51
2022-12-14T12:37:25.152Z,81.41
2022-12-14T12:37:58.711Z,81.58
2022-12-14T12:38:56.714Z,81.30
2022-12-14T12:39:56.692Z,80.68
2022-12-14T12:40:56.698Z,80.88
2022-12-14T12:42:02.104Z,81.20
2022-12-14T12:42:58.666Z,81.27
2022-12-14T12:43:56.670Z,80.68
2022-12-14T12:44:56.647Z,80.99
2022-12-14T12:45:56.708Z,80.78
2022-12-14T12:47:22.744Z,81.45
2022-12-14T12:47:58.678Z,81.41
2022-12-14T12:48:56.612Z,81.34
2022-12-14T12:49:56.615Z,81.20
2022-12-14T12:50:56.621Z,81.55
2022-12-14T12:51:56.598Z,81.93
2022-12-14T12:53:02.677Z,82.25
2022-12-14T12:53:58.593Z,82.35
2022-12-14T12:54:56.581Z,81.93